AirNav   Pilot Hours Calculator
 
 1255 users online  

VA25 Twin Towers Airport
Chase City, Virginia, USA

GOING TO CHASE CITY?


FAA INFORMATION EFFECTIVE 31 DECEMBER 2020

Location

FAA Identifier: VA25
Lat/Long: 36-45-51.5070N 078-21-37.9910W
36-45.858450N 078-21.633183W
36.7643075,-78.3605531
(estimated)
Elevation: 470 ft. / 143 m (estimated)
Variation: 08W (1985)
From city: 5 miles E of CHASE CITY, VA
Time zone: UTC -5 (UTC -4 during Daylight Saving Time)
Zip code: 23924

Airport Operations

Airport use: Private use. Permission required prior to landing
Activation date: 02/1989
Control tower: no
ARTCC: WASHINGTON CENTER
FSS: LEESBURG FLIGHT SERVICE STATION
Attendance: UNATNDD
Wind indicator: yes
Segmented circle: no

Airport Communications

WX AWOS-3 at CXE (7 nm W): 121.225 (434-372-4506)
WX AWOS-3 at W63 (14 nm SW): 118.225 (434-374-2431)
WX AWOS-3 at W31 (14 nm NE): 123.875 (434-676-1078)
WX AWOS-3 at AVC (15 nm E): 127.525 (434-729-2229)

Nearby radio navigation aids

VOR radial/distance  VOR name  Freq  Var
LVLr270/22.2LAWRENCEVILLE VORTAC112.9008W
SBVr085/31.9SOUTH BOSTON VORTAC110.4005W

 
NDB name  Hdg/Dist  Freq  Var  ID
BLACKSTONE224/26.532609WBKT -... -.- -
HUNTSBORO033/30.427109WHXO .... -..- ---
FARMVILLE183/35.536709WFVX ..-. ...- -..-

Airport Services

Runway Information

Runway 10/28

Dimensions: 1500 x 80 ft. / 457 x 24 m
Surface: turf
Runway edge markings: 10/28 MARKED WITH WHITE CONES.
RUNWAY 10  RUNWAY 28
Traffic pattern: leftleft
Displaced threshold: 200 ft.no
Obstructions: 20 ft. trees
300' RADIO TWR 1 NM NORTH; 218' RADIO TWO 3 NM SOUTHEAST.
pline

Airport Ownership and Management from official FAA records

Ownership: Privately-owned
Owner: RUTH M. ASHWORTH
6075 OLD COX RD
CHASE CITY, VA 23924
Phone 434-372-3408
Manager: RUTH M. ASHWORTH
6075 OLD COX RD
CHASE CITY, VA 23924
Phone 434-372-3408

Airport Operational Statistics

Aircraft based on the field: 1
Single engine airplanes: 1
    

Additional Remarks

FOR CD CTC WASHINGTON ARTCC AT 703-771-3587.

Instrument Procedures

There are no published instrument procedures at VA25.

Some nearby airports with instrument procedures:

KCXE - Chase City Municipal Airport (7 nm W)
W63 - Lake Country Regional Airport (14 nm SW)
W31 - Lunenburg County Airport (14 nm NE)
KAVC - Mecklenburg-Brunswick Regional Airport (15 nm E)
W78 - William M Tuck Airport (24 nm W)
 
Loc | Ops | Rwys | IFR | FBO | Links
Com | Nav | Svcs | Stats | Notes
Area around VA25 (Twin Towers Airport)
 
Road maps at: MapQuest Bing Google
 
Aerial photo
No photo
 
Sectional chart

 
Airport distance calculator
Flying to Twin Towers Airport? Find the distance to fly.

From to VA25

Sunrise and sunset
Times for 27-Jan-2021
 Local
(UTC-5)
 Zulu
(UTC)
Morning civil twilight06:5311:53
Sunrise07:2012:20
Sunset17:3222:32
Evening civil twilight18:0023:00

Current date and time
Zulu (UTC)  27-Jan-2021 14:59:57
Local (UTC-5)  27-Jan-2021 09:59:57
 
METAR
KCXE 
7nm W 
271455Z AUTO 00000KT 10SM BKN120 05/05 A3007 RMK AO1 T00470047
KW63 
14nm SW 
271435Z AUTO 00000KT 10SM SCT120 07/05 A3007 RMK AO1
KW31 
14nm NE 
271415Z AUTO 03003KT 10SM SCT120 04/04 A3007 RMK AO1 T00440044
KAVC 
16nm E 
271455Z AUTO 00000KT 10SM SCT120 06/05 A3014 RMK AO2 T00550045
TAF
KDAN 
48nm W 
270541Z 2706/2806 VRB03KT 1/4SM FG VV001 FM271400 32004KT P6SM BKN060 FM271700 02005KT P6SM OVC100 FM272000 03005KT P6SM OVC050 FM280200 04008KT 5SM -RA BR OVC022 AMD NOT SKED
NOTAMs
Click for the latest NOTAMs
NOTAMs are issued by the DoD/FAA and will open in a separate window not controlled by AirNav.

 

 
 

Would you like to see your business listed on this page?

 If your business provides an interesting product or service to pilots, flight crews, aircraft, or users of the Twin Towers Airport, you should consider listing it here.  To start the listing process, click on the button below
 
Add a business
 

Other Pages about Twin Towers Airport

Update a link
 
Copyright © AirNav, LLC. All rights reserved. Privacy Policy  Contact